sensor_id;sensor_type;location;lat;lon;timestamp;P1;durP1;ratioP1;P2;durP2;ratioP2
22268;SDS011;11303;50.772;19.670;2023-09-19T00:00:42;27.60;;;20.83;;
22268;SDS011;11303;50.772;19.670;2023-09-19T00:03:19;24.38;;;20.50;;
22268;SDS011;11303;50.772;19.670;2023-09-19T00:05:13;28.70;;;21.60;;
22268;SDS011;11303;50.772;19.670;2023-09-19T00:07:15;34.10;;;21.13;;
22268;SDS011;11303;50.772;19.670;2023-09-19T00:09:17;28.63;;;21.27;;
22268;SDS011;11303;50.772;19.670;2023-09-19T00:11:19;31.65;;;22.23;;
22268;SDS011;11303;50.772;19.670;2023-09-19T00:13:20;29.20;;;21.13;;
22268;SDS011;11303;50.772;19.670;2023-09-19T00:15:22;27.35;;;21.45;;
22268;SDS011;11303;50.772;19.670;2023-09-19T00:17:24;27.95;;;22.00;;
22268;SDS011;11303;50.772;19.670;2023-09-19T00:19:26;27.13;;;20.92;;
22268;SDS011;11303;50.772;19.670;2023-09-19T00:21:28;28.63;;;21.42;;
22268;SDS011;11303;50.772;19.670;2023-09-19T00:23:29;29.45;;;22.25;;
22268;SDS011;11303;50.772;19.670;2023-09-19T00:25:32;26.10;;;20.42;;
22268;SDS011;11303;50.772;19.670;2023-09-19T00:27:36;28.38;;;19.95;;
22268;SDS011;11303;50.772;19.670;2023-09-19T00:29:41;25.40;;;20.70;;
22268;SDS011;11303;50.772;19.670;2023-09-19T00:31:43;28.15;;;20.42;;
22268;SDS011;11303;50.772;19.670;2023-09-19T00:33:45;31.02;;;20.92;;
22268;SDS011;11303;50.772;19.670;2023-09-19T00:35:50;27.58;;;19.90;;
22268;SDS011;11303;50.772;19.670;2023-09-19T00:37:54;26.23;;;19.48;;
22268;SDS011;11303;50.772;19.670;2023-09-19T00:39:56;29.20;;;21.98;;
22268;SDS011;11303;50.772;19.670;2023-09-19T00:41:58;28.17;;;19.77;;
22268;SDS011;11303;50.772;19.670;2023-09-19T00:44:06;27.88;;;20.92;;
22268;SDS011;11303;50.772;19.670;2023-09-19T00:46:07;29.42;;;21.88;;
22268;SDS011;11303;50.772;19.670;2023-09-19T00:48:10;30.73;;;21.60;;
22268;SDS011;11303;50.772;19.670;2023-09-19T00:50:12;27.63;;;22.00;;
22268;SDS011;11303;50.772;19.670;2023-09-19T00:52:16;30.67;;;21.88;;
22268;SDS011;11303;50.772;19.670;2023-09-19T00:54:21;29.23;;;21.63;;
22268;SDS011;11303;50.772;19.670;2023-09-19T00:56:23;28.20;;;21.20;;
22268;SDS011;11303;50.772;19.670;2023-09-19T00:58:25;31.63;;;23.00;;
22268;SDS011;11303;50.772;19.670;2023-09-19T01:00:27;27.92;;;21.42;;
22268;SDS011;11303;50.772;19.670;2023-09-19T01:02:30;26.50;;;22.00;;
22268;SDS011;11303;50.772;19.670;2023-09-19T01:04:33;29.15;;;21.50;;
22268;SDS011;11303;50.772;19.670;2023-09-19T01:06:35;27.60;;;21.95;;
22268;SDS011;11303;50.772;19.670;2023-09-19T01:08:38;30.33;;;20.38;;
22268;SDS011;11303;50.772;19.670;2023-09-19T01:10:52;25.80;;;21.08;;
22268;SDS011;11303;50.772;19.670;2023-09-19T01:13:08;29.23;;;21.33;;
22268;SDS011;11303;50.772;19.670;2023-09-19T01:15:32;28.77;;;21.60;;
22268;SDS011;11303;50.772;19.670;2023-09-19T01:17:57;26.08;;;21.33;;
22268;SDS011;11303;50.772;19.670;2023-09-19T01:29:26;28.48;;;21.38;;
22268;SDS011;11303;50.772;19.670;2023-09-19T01:31:42;27.90;;;20.55;;
22268;SDS011;11303;50.772;19.670;2023-09-19T01:33:57;29.40;;;20.25;;
22268;SDS011;11303;50.772;19.670;2023-09-19T01:36:05;30.58;;;21.40;;
22268;SDS011;11303;50.772;19.670;2023-09-19T01:38:07;30.63;;;21.27;;
22268;SDS011;11303;50.772;19.670;2023-09-19T01:40:13;27.88;;;21.10;;
22268;SDS011;11303;50.772;19.670;2023-09-19T01:42:29;30.67;;;20.67;;
22268;SDS011;11303;50.772;19.670;2023-09-19T01:46:49;23.83;;;19.77;;
22268;SDS011;11303;50.772;19.670;2023-09-19T01:51:06;22.23;;;18.65;;
22268;SDS011;11303;50.772;19.670;2023-09-19T01:53:15;25.63;;;19.65;;
22268;SDS011;11303;50.772;19.670;2023-09-19T01:55:29;25.63;;;18.63;;
22268;SDS011;11303;50.772;19.670;2023-09-19T01:57:35;28.88;;;18.77;;
22268;SDS011;11303;50.772;19.670;2023-09-19T01:59:50;24.02;;;18.40;;
22268;SDS011;11303;50.772;19.670;2023-09-19T02:01:55;25.70;;;18.95;;
22268;SDS011;11303;50.772;19.670;2023-09-19T02:03:58;21.98;;;18.25;;
22268;SDS011;11303;50.772;19.670;2023-09-19T02:05:59;24.42;;;17.25;;
22268;SDS011;11303;50.772;19.670;2023-09-19T02:08:02;21.83;;;18.00;;
22268;SDS011;11303;50.772;19.670;2023-09-19T02:10:07;22.38;;;16.75;;
22268;SDS011;11303;50.772;19.670;2023-09-19T02:12:11;22.23;;;17.38;;
22268;SDS011;11303;50.772;19.670;2023-09-19T02:14:13;23.42;;;17.67;;
22268;SDS011;11303;50.772;19.670;2023-09-19T02:16:16;25.35;;;17.00;;
22268;SDS011;11303;50.772;19.670;2023-09-19T02:18:18;22.67;;;16.88;;
22268;SDS011;11303;50.772;19.670;2023-09-19T02:20:20;23.10;;;17.92;;
22268;SDS011;11303;50.772;19.670;2023-09-19T02:22:22;22.63;;;17.77;;
22268;SDS011;11303;50.772;19.670;2023-09-19T02:24:24;23.52;;;17.75;;
22268;SDS011;11303;50.772;19.670;2023-09-19T02:26:28;22.27;;;16.83;;
22268;SDS011;11303;50.772;19.670;2023-09-19T02:28:29;21.30;;;16.77;;
22268;SDS011;11303;50.772;19.670;2023-09-19T02:30:33;19.70;;;16.85;;
22268;SDS011;11303;50.772;19.670;2023-09-19T02:32:35;19.67;;;16.33;;
22268;SDS011;11303;50.772;19.670;2023-09-19T02:34:38;21.08;;;16.13;;
22268;SDS011;11303;50.772;19.670;2023-09-19T02:36:40;20.08;;;16.55;;
22268;SDS011;11303;50.772;19.670;2023-09-19T02:38:42;19.80;;;17.10;;
22268;SDS011;11303;50.772;19.670;2023-09-19T02:40:43;21.02;;;16.58;;
22268;SDS011;11303;50.772;19.670;2023-09-19T02:42:46;23.60;;;16.55;;
22268;SDS011;11303;50.772;19.670;2023-09-19T02:44:50;21.17;;;16.48;;
22268;SDS011;11303;50.772;19.670;2023-09-19T02:46:52;20.40;;;16.88;;
22268;SDS011;11303;50.772;19.670;2023-09-19T02:48:54;19.77;;;16.33;;
22268;SDS011;11303;50.772;19.670;2023-09-19T02:50:56;26.52;;;17.33;;
22268;SDS011;11303;50.772;19.670;2023-09-19T02:52:58;22.70;;;16.52;;
22268;SDS011;11303;50.772;19.670;2023-09-19T02:55:00;27.63;;;17.05;;
22268;SDS011;11303;50.772;19.670;2023-09-19T02:57:02;24.10;;;16.30;;
22268;SDS011;11303;50.772;19.670;2023-09-19T02:59:04;20.77;;;16.02;;
22268;SDS011;11303;50.772;19.670;2023-09-19T03:01:07;22.70;;;16.98;;
22268;SDS011;11303;50.772;19.670;2023-09-19T03:03:10;22.55;;;16.23;;
22268;SDS011;11303;50.772;19.670;2023-09-19T03:05:12;20.17;;;16.55;;
22268;SDS011;11303;50.772;19.670;2023-09-19T03:07:15;19.80;;;15.40;;
22268;SDS011;11303;50.772;19.670;2023-09-19T03:09:16;21.35;;;15.70;;
22268;SDS011;11303;50.772;19.670;2023-09-19T03:11:18;20.65;;;15.38;;
22268;SDS011;11303;50.772;19.670;2023-09-19T03:13:24;23.25;;;16.13;;
22268;SDS011;11303;50.772;19.670;2023-09-19T03:15:26;25.17;;;15.93;;
22268;SDS011;11303;50.772;19.670;2023-09-19T03:17:27;21.58;;;15.45;;
22268;SDS011;11303;50.772;19.670;2023-09-19T03:19:29;22.98;;;15.85;;
22268;SDS011;11303;50.772;19.670;2023-09-19T03:21:31;20.67;;;16.02;;
22268;SDS011;11303;50.772;19.670;2023-09-19T03:23:33;21.75;;;16.15;;
22268;SDS011;11303;50.772;19.670;2023-09-19T03:25:35;20.27;;;15.82;;
22268;SDS011;11303;50.772;19.670;2023-09-19T03:27:40;22.98;;;16.05;;
22268;SDS011;11303;50.772;19.670;2023-09-19T03:29:42;17.85;;;15.10;;
22268;SDS011;11303;50.772;19.670;2023-09-19T03:31:44;19.98;;;16.15;;
22268;SDS011;11303;50.772;19.670;2023-09-19T03:33:47;21.52;;;15.55;;
22268;SDS011;11303;50.772;19.670;2023-09-19T03:35:52;18.63;;;15.52;;
22268;SDS011;11303;50.772;19.670;2023-09-19T03:37:54;21.80;;;15.65;;
22268;SDS011;11303;50.772;19.670;2023-09-19T03:39:57;18.50;;;16.33;;
22268;SDS011;11303;50.772;19.670;2023-09-19T03:41:58;24.20;;;16.02;;
22268;SDS011;11303;50.772;19.670;2023-09-19T03:44:00;20.90;;;15.55;;
22268;SDS011;11303;50.772;19.670;2023-09-19T03:46:01;20.25;;;15.90;;
22268;SDS011;11303;50.772;19.670;2023-09-19T03:48:08;22.73;;;16.40;;
22268;SDS011;11303;50.772;19.670;2023-09-19T03:50:10;19.05;;;14.85;;
22268;SDS011;11303;50.772;19.670;2023-09-19T03:52:12;19.08;;;15.20;;
22268;SDS011;11303;50.772;19.670;2023-09-19T03:54:14;20.42;;;15.52;;
22268;SDS011;11303;50.772;19.670;2023-09-19T03:56:17;19.77;;;15.73;;
22268;SDS011;11303;50.772;19.670;2023-09-19T03:58:19;19.90;;;16.58;;
22268;SDS011;11303;50.772;19.670;2023-09-19T04:00:22;18.00;;;15.60;;
22268;SDS011;11303;50.772;19.670;2023-09-19T04:02:25;22.65;;;18.00;;
22268;SDS011;11303;50.772;19.670;2023-09-19T04:04:27;24.25;;;16.92;;
22268;SDS011;11303;50.772;19.670;2023-09-19T04:06:30;21.98;;;17.50;;
22268;SDS011;11303;50.772;19.670;2023-09-19T04:08:32;26.10;;;17.60;;
22268;SDS011;11303;50.772;19.670;2023-09-19T04:10:34;30.80;;;19.38;;
22268;SDS011;11303;50.772;19.670;2023-09-19T04:12:35;26.75;;;19.67;;
22268;SDS011;11303;50.772;19.670;2023-09-19T04:14:37;28.92;;;20.17;;
22268;SDS011;11303;50.772;19.670;2023-09-19T04:16:39;30.48;;;23.23;;
22268;SDS011;11303;50.772;19.670;2023-09-19T04:18:41;29.48;;;22.85;;
22268;SDS011;11303;50.772;19.670;2023-09-19T04:20:47;31.55;;;22.38;;
22268;SDS011;11303;50.772;19.670;2023-09-19T04:22:52;30.90;;;23.27;;
22268;SDS011;11303;50.772;19.670;2023-09-19T04:24:53;28.77;;;23.52;;
22268;SDS011;11303;50.772;19.670;2023-09-19T04:26:55;31.08;;;22.23;;
22268;SDS011;11303;50.772;19.670;2023-09-19T04:28:58;29.33;;;21.58;;
22268;SDS011;11303;50.772;19.670;2023-09-19T04:31:00;31.48;;;21.88;;
22268;SDS011;11303;50.772;19.670;2023-09-19T04:33:02;28.27;;;21.38;;
22268;SDS011;11303;50.772;19.670;2023-09-19T04:35:07;25.60;;;20.67;;
22268;SDS011;11303;50.772;19.670;2023-09-19T04:37:09;26.85;;;21.55;;
22268;SDS011;11303;50.772;19.670;2023-09-19T04:39:12;32.83;;;22.35;;
22268;SDS011;11303;50.772;19.670;2023-09-19T04:41:14;26.60;;;21.48;;
22268;SDS011;11303;50.772;19.670;2023-09-19T04:43:16;29.95;;;21.33;;
22268;SDS011;11303;50.772;19.670;2023-09-19T04:45:18;25.60;;;20.95;;
22268;SDS011;11303;50.772;19.670;2023-09-19T04:47:21;26.27;;;20.92;;
22268;SDS011;11303;50.772;19.670;2023-09-19T04:49:23;32.83;;;21.90;;
22268;SDS011;11303;50.772;19.670;2023-09-19T04:51:25;27.70;;;21.45;;
22268;SDS011;11303;50.772;19.670;2023-09-19T04:53:30;29.42;;;21.30;;
22268;SDS011;11303;50.772;19.670;2023-09-19T04:55:32;27.33;;;20.75;;
22268;SDS011;11303;50.772;19.670;2023-09-19T04:57:34;28.02;;;22.17;;
22268;SDS011;11303;50.772;19.670;2023-09-19T04:59:37;26.45;;;19.63;;
22268;SDS011;11303;50.772;19.670;2023-09-19T05:01:41;25.80;;;20.83;;
22268;SDS011;11303;50.772;19.670;2023-09-19T05:03:43;26.90;;;21.20;;
22268;SDS011;11303;50.772;19.670;2023-09-19T05:05:46;26.25;;;20.23;;
22268;SDS011;11303;50.772;19.670;2023-09-19T05:07:48;26.73;;;20.33;;
22268;SDS011;11303;50.772;19.670;2023-09-19T05:09:50;28.35;;;19.70;;
22268;SDS011;11303;50.772;19.670;2023-09-19T05:11:51;26.13;;;19.90;;
22268;SDS011;11303;50.772;19.670;2023-09-19T05:13:54;24.02;;;20.60;;
22268;SDS011;11303;50.772;19.670;2023-09-19T05:15:59;27.15;;;20.60;;
22268;SDS011;11303;50.772;19.670;2023-09-19T05:18:03;25.75;;;20.42;;
22268;SDS011;11303;50.772;19.670;2023-09-19T05:20:05;25.27;;;20.67;;
22268;SDS011;11303;50.772;19.670;2023-09-19T05:22:17;27.83;;;20.88;;
22268;SDS011;11303;50.772;19.670;2023-09-19T05:24:20;27.45;;;21.50;;
22268;SDS011;11303;50.772;19.670;2023-09-19T05:26:24;25.45;;;21.27;;
22268;SDS011;11303;50.772;19.670;2023-09-19T05:28:26;25.58;;;21.77;;
22268;SDS011;11303;50.772;19.670;2023-09-19T05:30:28;24.98;;;20.55;;
22268;SDS011;11303;50.772;19.670;2023-09-19T05:32:30;30.38;;;21.83;;
22268;SDS011;11303;50.772;19.670;2023-09-19T05:34:32;29.00;;;21.27;;
22268;SDS011;11303;50.772;19.670;2023-09-19T05:36:33;27.63;;;20.58;;
22268;SDS011;11303;50.772;19.670;2023-09-19T05:38:35;24.92;;;21.70;;
22268;SDS011;11303;50.772;19.670;2023-09-19T05:40:37;29.60;;;23.70;;
22268;SDS011;11303;50.772;19.670;2023-09-19T05:42:40;25.65;;;21.80;;
22268;SDS011;11303;50.772;19.670;2023-09-19T05:44:42;26.13;;;22.48;;
22268;SDS011;11303;50.772;19.670;2023-09-19T05:46:44;29.10;;;23.75;;
22268;SDS011;11303;50.772;19.670;2023-09-19T05:48:47;31.67;;;23.77;;
22268;SDS011;11303;50.772;19.670;2023-09-19T05:50:49;31.45;;;24.50;;
22268;SDS011;11303;50.772;19.670;2023-09-19T05:52:51;34.53;;;25.45;;
22268;SDS011;11303;50.772;19.670;2023-09-19T05:54:54;34.38;;;27.13;;
22268;SDS011;11303;50.772;19.670;2023-09-19T05:56:57;37.08;;;28.27;;
22268;SDS011;11303;50.772;19.670;2023-09-19T05:58:59;40.72;;;30.10;;
22268;SDS011;11303;50.772;19.670;2023-09-19T06:01:01;62.65;;;33.42;;
22268;SDS011;11303;50.772;19.670;2023-09-19T06:03:03;53.03;;;34.88;;
22268;SDS011;11303;50.772;19.670;2023-09-19T06:05:05;49.40;;;36.65;;
22268;SDS011;11303;50.772;19.670;2023-09-19T06:07:07;57.50;;;38.85;;
22268;SDS011;11303;50.772;19.670;2023-09-19T06:09:09;58.88;;;39.00;;
22268;SDS011;11303;50.772;19.670;2023-09-19T06:11:11;59.50;;;40.58;;
22268;SDS011;11303;50.772;19.670;2023-09-19T06:13:12;59.17;;;40.35;;
22268;SDS011;11303;50.772;19.670;2023-09-19T06:15:14;64.45;;;42.05;;
22268;SDS011;11303;50.772;19.670;2023-09-19T06:17:17;72.43;;;44.22;;
22268;SDS011;11303;50.772;19.670;2023-09-19T06:19:21;79.30;;;46.33;;
22268;SDS011;11303;50.772;19.670;2023-09-19T06:21:24;71.03;;;45.22;;
22268;SDS011;11303;50.772;19.670;2023-09-19T06:23:26;75.35;;;46.20;;
22268;SDS011;11303;50.772;19.670;2023-09-19T06:25:30;76.43;;;48.25;;
22268;SDS011;11303;50.772;19.670;2023-09-19T06:27:32;79.63;;;47.60;;
22268;SDS011;11303;50.772;19.670;2023-09-19T06:29:33;76.60;;;46.70;;
22268;SDS011;11303;50.772;19.670;2023-09-19T06:31:35;81.03;;;48.20;;
22268;SDS011;11303;50.772;19.670;2023-09-19T06:33:37;80.43;;;46.75;;
22268;SDS011;11303;50.772;19.670;2023-09-19T06:35:42;79.32;;;47.20;;
22268;SDS011;11303;50.772;19.670;2023-09-19T06:37:45;86.55;;;48.30;;
22268;SDS011;11303;50.772;19.670;2023-09-19T06:39:46;83.47;;;48.03;;
22268;SDS011;11303;50.772;19.670;2023-09-19T06:41:50;85.55;;;49.78;;
22268;SDS011;11303;50.772;19.670;2023-09-19T06:43:54;83.43;;;48.47;;
22268;SDS011;11303;50.772;19.670;2023-09-19T06:45:56;87.15;;;50.60;;
22268;SDS011;11303;50.772;19.670;2023-09-19T06:47:58;90.05;;;49.50;;
22268;SDS011;11303;50.772;19.670;2023-09-19T06:50:01;85.03;;;51.35;;
22268;SDS011;11303;50.772;19.670;2023-09-19T06:52:04;98.85;;;55.00;;
22268;SDS011;11303;50.772;19.670;2023-09-19T06:54:05;97.75;;;53.67;;
22268;SDS011;11303;50.772;19.670;2023-09-19T06:56:07;92.18;;;51.70;;
22268;SDS011;11303;50.772;19.670;2023-09-19T06:58:09;98.13;;;51.97;;
22268;SDS011;11303;50.772;19.670;2023-09-19T07:00:12;83.18;;;50.63;;
22268;SDS011;11303;50.772;19.670;2023-09-19T07:02:19;106.25;;;50.67;;
22268;SDS011;11303;50.772;19.670;2023-09-19T07:04:23;94.47;;;49.08;;
22268;SDS011;11303;50.772;19.670;2023-09-19T07:06:25;88.95;;;47.35;;
22268;SDS011;11303;50.772;19.670;2023-09-19T07:08:27;78.30;;;46.15;;
22268;SDS011;11303;50.772;19.670;2023-09-19T07:10:29;73.30;;;43.42;;
22268;SDS011;11303;50.772;19.670;2023-09-19T07:12:32;66.25;;;42.72;;
22268;SDS011;11303;50.772;19.670;2023-09-19T07:14:36;65.65;;;40.45;;
22268;SDS011;11303;50.772;19.670;2023-09-19T07:16:38;65.25;;;39.17;;
22268;SDS011;11303;50.772;19.670;2023-09-19T07:18:40;54.72;;;38.13;;
22268;SDS011;11303;50.772;19.670;2023-09-19T07:20:45;62.70;;;38.75;;
22268;SDS011;11303;50.772;19.670;2023-09-19T07:22:50;52.13;;;37.00;;
22268;SDS011;11303;50.772;19.670;2023-09-19T07:24:52;52.15;;;35.80;;
22268;SDS011;11303;50.772;19.670;2023-09-19T07:26:54;48.10;;;34.85;;
22268;SDS011;11303;50.772;19.670;2023-09-19T07:28:55;42.70;;;32.33;;
22268;SDS011;11303;50.772;19.670;2023-09-19T07:31:01;45.05;;;31.67;;
22268;SDS011;11303;50.772;19.670;2023-09-19T07:33:05;34.70;;;28.38;;
22268;SDS011;11303;50.772;19.670;2023-09-19T07:35:07;37.05;;;27.90;;
22268;SDS011;11303;50.772;19.670;2023-09-19T07:37:11;36.13;;;27.38;;
22268;SDS011;11303;50.772;19.670;2023-09-19T07:39:14;38.47;;;26.95;;
22268;SDS011;11303;50.772;19.670;2023-09-19T07:41:24;33.43;;;26.10;;
22268;SDS011;11303;50.772;19.670;2023-09-19T07:43:26;33.17;;;25.15;;
22268;SDS011;11303;50.772;19.670;2023-09-19T07:45:29;37.00;;;25.38;;
22268;SDS011;11303;50.772;19.670;2023-09-19T07:47:31;33.40;;;23.67;;
22268;SDS011;11303;50.772;19.670;2023-09-19T07:49:34;32.38;;;24.08;;
22268;SDS011;11303;50.772;19.670;2023-09-19T07:51:35;37.00;;;25.08;;
22268;SDS011;11303;50.772;19.670;2023-09-19T07:53:37;32.88;;;23.40;;
22268;SDS011;11303;50.772;19.670;2023-09-19T07:55:39;34.38;;;24.58;;
22268;SDS011;11303;50.772;19.670;2023-09-19T07:57:43;29.30;;;24.05;;
22268;SDS011;11303;50.772;19.670;2023-09-19T07:59:45;33.67;;;23.60;;
22268;SDS011;11303;50.772;19.670;2023-09-19T08:01:47;41.90;;;25.42;;
22268;SDS011;11303;50.772;19.670;2023-09-19T08:03:50;36.58;;;25.63;;
22268;SDS011;11303;50.772;19.670;2023-09-19T08:05:51;39.25;;;28.55;;
22268;SDS011;11303;50.772;19.670;2023-09-19T08:07:53;38.42;;;26.15;;
22268;SDS011;11303;50.772;19.670;2023-09-19T08:09:58;40.03;;;26.88;;
22268;SDS011;11303;50.772;19.670;2023-09-19T08:12:00;39.75;;;28.10;;
22268;SDS011;11303;50.772;19.670;2023-09-19T08:14:06;34.78;;;26.55;;
22268;SDS011;11303;50.772;19.670;2023-09-19T08:16:09;36.33;;;26.60;;
22268;SDS011;11303;50.772;19.670;2023-09-19T08:18:12;36.28;;;26.25;;
22268;SDS011;11303;50.772;19.670;2023-09-19T08:20:13;40.50;;;25.73;;
22268;SDS011;11303;50.772;19.670;2023-09-19T08:22:21;33.00;;;25.30;;
22268;SDS011;11303;50.772;19.670;2023-09-19T08:24:28;33.80;;;24.02;;
22268;SDS011;11303;50.772;19.670;2023-09-19T08:26:30;36.00;;;23.23;;
22268;SDS011;11303;50.772;19.670;2023-09-19T08:28:36;29.30;;;22.83;;
22268;SDS011;11303;50.772;19.670;2023-09-19T08:30:38;34.05;;;22.48;;
22268;SDS011;11303;50.772;19.670;2023-09-19T08:32:42;31.25;;;23.50;;
22268;SDS011;11303;50.772;19.670;2023-09-19T08:34:47;34.03;;;22.45;;
22268;SDS011;11303;50.772;19.670;2023-09-19T08:36:52;33.40;;;23.42;;
22268;SDS011;11303;50.772;19.670;2023-09-19T08:38:58;34.97;;;22.25;;
22268;SDS011;11303;50.772;19.670;2023-09-19T08:41:00;31.30;;;22.23;;
22268;SDS011;11303;50.772;19.670;2023-09-19T08:43:02;29.95;;;20.88;;
22268;SDS011;11303;50.772;19.670;2023-09-19T08:45:04;31.60;;;21.05;;
22268;SDS011;11303;50.772;19.670;2023-09-19T08:47:10;30.27;;;20.38;;
22268;SDS011;11303;50.772;19.670;2023-09-19T08:49:27;27.05;;;19.92;;
22268;SDS011;11303;50.772;19.670;2023-09-19T08:51:41;26.98;;;18.48;;
22268;SDS011;11303;50.772;19.670;2023-09-19T08:56:10;22.02;;;15.68;;
22268;SDS011;11303;50.772;19.670;2023-09-19T08:58:12;18.38;;;14.45;;
22268;SDS011;11303;50.772;19.670;2023-09-19T09:00:20;18.65;;;13.35;;
22268;SDS011;11303;50.772;19.670;2023-09-19T09:02:24;16.80;;;13.68;;
22268;SDS011;11303;50.772;19.670;2023-09-19T09:04:26;16.90;;;12.55;;
22268;SDS011;11303;50.772;19.670;2023-09-19T09:06:29;14.93;;;11.40;;
22268;SDS011;11303;50.772;19.670;2023-09-19T09:08:31;14.90;;;11.35;;
22268;SDS011;11303;50.772;19.670;2023-09-19T09:10:33;14.45;;;10.23;;
22268;SDS011;11303;50.772;19.670;2023-09-19T09:12:35;15.32;;;9.15;;
22268;SDS011;11303;50.772;19.670;2023-09-19T09:14:45;12.60;;;9.30;;
22268;SDS011;11303;50.772;19.670;2023-09-19T09:16:51;12.13;;;8.57;;
22268;SDS011;11303;50.772;19.670;2023-09-19T09:18:53;11.55;;;8.93;;
22268;SDS011;11303;50.772;19.670;2023-09-19T09:20:56;10.95;;;8.23;;
22268;SDS011;11303;50.772;19.670;2023-09-19T09:22:58;14.13;;;8.43;;
22268;SDS011;11303;50.772;19.670;2023-09-19T09:25:04;13.27;;;7.82;;
22268;SDS011;11303;50.772;19.670;2023-09-19T09:27:06;15.10;;;8.30;;
22268;SDS011;11303;50.772;19.670;2023-09-19T09:29:11;12.73;;;7.95;;
22268;SDS011;11303;50.772;19.670;2023-09-19T09:31:22;15.00;;;8.25;;
22268;SDS011;11303;50.772;19.670;2023-09-19T09:33:25;13.85;;;8.20;;
22268;SDS011;11303;50.772;19.670;2023-09-19T09:35:27;12.25;;;8.70;;
22268;SDS011;11303;50.772;19.670;2023-09-19T09:37:28;12.55;;;8.57;;
22268;SDS011;11303;50.772;19.670;2023-09-19T09:39:32;12.98;;;8.55;;
22268;SDS011;11303;50.772;19.670;2023-09-19T09:41:36;11.32;;;7.72;;
22268;SDS011;11303;50.772;19.670;2023-09-19T09:43:39;12.73;;;8.40;;
22268;SDS011;11303;50.772;19.670;2023-09-19T09:45:42;10.98;;;8.38;;
22268;SDS011;11303;50.772;19.670;2023-09-19T09:47:49;14.00;;;8.40;;
22268;SDS011;11303;50.772;19.670;2023-09-19T09:49:55;13.75;;;8.65;;
22268;SDS011;11303;50.772;19.670;2023-09-19T09:52:09;16.70;;;8.80;;
22268;SDS011;11303;50.772;19.670;2023-09-19T09:54:19;12.60;;;8.27;;
22268;SDS011;11303;50.772;19.670;2023-09-19T09:56:21;14.93;;;9.55;;
22268;SDS011;11303;50.772;19.670;2023-09-19T09:58:24;16.30;;;9.52;;
22268;SDS011;11303;50.772;19.670;2023-09-19T10:00:30;13.93;;;9.05;;
22268;SDS011;11303;50.772;19.670;2023-09-19T10:02:43;18.27;;;9.80;;
22268;SDS011;11303;50.772;19.670;2023-09-19T10:04:48;14.50;;;10.27;;
22268;SDS011;11303;50.772;19.670;2023-09-19T10:06:53;18.50;;;11.07;;
22268;SDS011;11303;50.772;19.670;2023-09-19T10:11:16;18.00;;;10.15;;
22268;SDS011;11303;50.772;19.670;2023-09-19T10:13:19;21.88;;;10.25;;
22268;SDS011;11303;50.772;19.670;2023-09-19T10:15:26;19.40;;;10.70;;
22268;SDS011;11303;50.772;19.670;2023-09-19T10:17:31;18.83;;;10.85;;
22268;SDS011;11303;50.772;19.670;2023-09-19T10:19:37;16.98;;;10.55;;
22268;SDS011;11303;50.772;19.670;2023-09-19T10:23:48;16.63;;;10.15;;
22268;SDS011;11303;50.772;19.670;2023-09-19T10:25:53;18.67;;;11.63;;
22268;SDS011;11303;50.772;19.670;2023-09-19T10:27:56;17.67;;;11.85;;
22268;SDS011;11303;50.772;19.670;2023-09-19T10:30:07;15.05;;;10.25;;
22268;SDS011;11303;50.772;19.670;2023-09-19T10:32:09;17.20;;;10.60;;
22268;SDS011;11303;50.772;19.670;2023-09-19T10:34:20;22.33;;;11.20;;
22268;SDS011;11303;50.772;19.670;2023-09-19T10:36:24;21.55;;;11.05;;
22268;SDS011;11303;50.772;19.670;2023-09-19T10:38:27;17.23;;;12.05;;
22268;SDS011;11303;50.772;19.670;2023-09-19T10:40:32;18.25;;;11.90;;
22268;SDS011;11303;50.772;19.670;2023-09-19T10:42:37;21.80;;;12.20;;
22268;SDS011;11303;50.772;19.670;2023-09-19T10:44:39;21.25;;;12.93;;
22268;SDS011;11303;50.772;19.670;2023-09-19T10:46:44;18.98;;;11.93;;
22268;SDS011;11303;50.772;19.670;2023-09-19T10:48:46;18.60;;;11.15;;
22268;SDS011;11303;50.772;19.670;2023-09-19T10:53:04;13.52;;;9.35;;
22268;SDS011;11303;50.772;19.670;2023-09-19T10:55:10;14.02;;;9.38;;
22268;SDS011;11303;50.772;19.670;2023-09-19T10:57:20;18.27;;;9.63;;
22268;SDS011;11303;50.772;19.670;2023-09-19T10:59:25;17.63;;;10.48;;
22268;SDS011;11303;50.772;19.670;2023-09-19T11:01:40;14.55;;;10.38;;
22268;SDS011;11303;50.772;19.670;2023-09-19T11:03:44;20.92;;;11.40;;
22268;SDS011;11303;50.772;19.670;2023-09-19T11:10:29;15.80;;;10.55;;
22268;SDS011;11303;50.772;19.670;2023-09-19T11:12:48;13.18;;;8.20;;
22268;SDS011;11303;50.772;19.670;2023-09-19T11:14:50;14.70;;;7.93;;
22268;SDS011;11303;50.772;19.670;2023-09-19T11:19:17;16.33;;;7.18;;
22268;SDS011;11303;50.772;19.670;2023-09-19T11:23:32;11.30;;;7.13;;
22268;SDS011;11303;50.772;19.670;2023-09-19T11:25:41;10.02;;;6.20;;
22268;SDS011;11303;50.772;19.670;2023-09-19T11:33:15;13.50;;;7.10;;
22268;SDS011;11303;50.772;19.670;2023-09-19T11:35:07;8.65;;;5.53;;
22268;SDS011;11303;50.772;19.670;2023-09-19T11:39:24;7.53;;;4.20;;
22268;SDS011;11303;50.772;19.670;2023-09-19T11:41:37;9.93;;;4.40;;
22268;SDS011;11303;50.772;19.670;2023-09-19T11:43:40;5.70;;;3.70;;
22268;SDS011;11303;50.772;19.670;2023-09-19T11:47:59;5.35;;;3.47;;
22268;SDS011;11303;50.772;19.670;2023-09-19T11:50:03;6.88;;;3.38;;
22268;SDS011;11303;50.772;19.670;2023-09-19T11:52:06;7.13;;;2.88;;
22268;SDS011;11303;50.772;19.670;2023-09-19T11:54:13;3.33;;;2.90;;
22268;SDS011;11303;50.772;19.670;2023-09-19T11:56:26;7.13;;;3.10;;
22268;SDS011;11303;50.772;19.670;2023-09-19T11:58:33;5.00;;;2.83;;
22268;SDS011;11303;50.772;19.670;2023-09-19T12:00:37;8.57;;;3.30;;
22268;SDS011;11303;50.772;19.670;2023-09-19T12:02:46;10.05;;;3.78;;
22268;SDS011;11303;50.772;19.670;2023-09-19T12:04:53;6.43;;;3.50;;
22268;SDS011;11303;50.772;19.670;2023-09-19T12:06:58;5.53;;;3.20;;
22268;SDS011;11303;50.772;19.670;2023-09-19T12:09:00;4.32;;;2.78;;
22268;SDS011;11303;50.772;19.670;2023-09-19T12:11:02;4.85;;;2.72;;
22268;SDS011;11303;50.772;19.670;2023-09-19T12:13:06;10.63;;;4.30;;
22268;SDS011;11303;50.772;19.670;2023-09-19T12:15:08;5.05;;;3.83;;
22268;SDS011;11303;50.772;19.670;2023-09-19T12:17:10;7.07;;;4.47;;
22268;SDS011;11303;50.772;19.670;2023-09-19T12:19:18;5.65;;;4.10;;
22268;SDS011;11303;50.772;19.670;2023-09-19T12:21:30;5.57;;;3.88;;
22268;SDS011;11303;50.772;19.670;2023-09-19T12:23:37;10.63;;;4.32;;
22268;SDS011;11303;50.772;19.670;2023-09-19T12:25:42;9.15;;;5.35;;
22268;SDS011;11303;50.772;19.670;2023-09-19T12:27:50;9.00;;;4.80;;
22268;SDS011;11303;50.772;19.670;2023-09-19T12:29:54;11.55;;;5.70;;
22268;SDS011;11303;50.772;19.670;2023-09-19T12:31:57;6.75;;;4.68;;
22268;SDS011;11303;50.772;19.670;2023-09-19T12:33:59;6.45;;;4.63;;
22268;SDS011;11303;50.772;19.670;2023-09-19T12:36:19;10.82;;;5.30;;
22268;SDS011;11303;50.772;19.670;2023-09-19T12:38:30;9.30;;;4.90;;